Time;durP1;ratioP1;P1;durP2;ratioP2;P2;SDS_P1;SDS_P2;PMS_P1;PMS_P2;Temp;Humidity;BMP_temperature;BMP_pressure;BME280_temperature;BME280_humidity;BME280_pressure;Samples;Min_cycle;Max_cycle;Signal;HPM_P1;HPM_P2
2021/11/02 00:01:05;;;;;;;8.17;5.87;;;10.00;1.00;;;;;;5129645;27;20540;-84
2021/11/02 00:03:32;;;;;;;6.90;5.97;;;10.00;1.00;;;;;;5137294;27;20456;-83
2021/11/02 00:05:59;;;;;;;6.60;5.40;;;10.00;1.00;;;;;;5133582;27;20442;-83
2021/11/02 00:08:26;;;;;;;7.47;5.47;;;10.00;1.00;;;;;;5134812;27;20527;-86
2021/11/02 00:10:53;;;;;;;7.07;5.50;;;10.00;1.00;;;;;;5114182;27;20432;-86
2021/11/02 00:13:28;;;;;;;5.63;4.60;;;10.10;1.00;;;;;;5112456;27;20413;-85
2021/11/02 00:16:01;;;;;;;7.87;5.23;;;10.10;1.00;;;;;;5112165;27;20449;-85
2021/11/02 00:18:28;;;;;;;9.20;5.95;;;10.10;1.00;;;;;;5115051;27;20413;-84
2021/11/02 00:21:00;;;;;;;7.60;5.73;;;10.10;1.00;;;;;;5116242;27;20318;-86
2021/11/02 00:23:28;;;;;;;7.90;5.60;;;10.00;1.00;;;;;;5119011;27;20460;-84
2021/11/02 00:25:54;;;;;;;8.00;6.17;;;10.10;1.00;;;;;;5130331;27;20421;-85
2021/11/02 00:28:22;;;;;;;8.43;6.00;;;10.10;1.00;;;;;;5111236;27;20842;-84
2021/11/02 00:30:49;;;;;;;6.20;5.60;;;10.10;1.00;;;;;;5104323;27;20487;-85
2021/11/02 00:33:15;;;;;;;6.80;6.10;;;10.10;1.00;;;;;;5082422;27;20471;-86
2021/11/02 00:35:42;;;;;;;7.88;5.88;;;10.10;1.00;;;;;;5101178;27;20526;-84
2021/11/02 00:38:09;;;;;;;8.27;5.78;;;10.00;1.00;;;;;;5094595;27;20219;-85
2021/11/02 00:40:36;;;;;;;7.43;6.00;;;10.00;1.00;;;;;;5106300;27;20230;-85
2021/11/02 00:43:04;;;;;;;9.33;5.67;;;10.00;1.00;;;;;;5108974;27;20465;-86
2021/11/02 00:45:34;;;;;;;9.00;6.40;;;10.10;1.00;;;;;;5117069;27;20505;-86
2021/11/02 00:48:03;;;;;;;8.77;6.03;;;10.00;1.00;;;;;;5141001;27;20421;-83
2021/11/02 00:50:32;;;;;;;10.80;6.63;;;10.00;1.00;;;;;;5139899;27;20424;-84
2021/11/02 00:52:59;;;;;;;9.73;6.17;;;10.10;1.00;;;;;;5124925;27;20500;-85
2021/11/02 00:55:26;;;;;;;8.43;6.30;;;10.00;1.00;;;;;;5109298;27;20461;-84
2021/11/02 00:57:52;;;;;;;10.13;6.40;;;10.00;1.00;;;;;;5107423;27;20504;-84
2021/11/02 01:00:20;;;;;;;7.60;6.37;;;9.90;1.00;;;;;;5102946;27;20552;-85
2021/11/02 01:02:48;;;;;;;8.03;6.20;;;10.00;1.00;;;;;;5107426;27;20473;-88
2021/11/02 01:05:15;;;;;;;12.30;6.57;;;10.00;1.00;;;;;;5090130;27;21187;-85
2021/11/02 01:07:42;;;;;;;8.67;7.30;;;10.00;1.00;;;;;;5122200;27;20456;-85
2021/11/02 01:10:15;;;;;;;8.37;7.20;;;10.10;1.00;;;;;;5117522;27;20480;-85
2021/11/02 01:12:42;;;;;;;8.40;6.80;;;10.00;1.00;;;;;;5111887;27;20416;-86
2021/11/02 01:15:09;;;;;;;11.03;7.07;;;10.00;1.00;;;;;;5114830;27;20474;-86
2021/11/02 01:17:36;;;;;;;8.00;7.10;;;10.00;1.00;;;;;;5114630;27;20435;-84
2021/11/02 01:20:06;;;;;;;8.37;7.30;;;10.10;1.00;;;;;;5116922;27;20457;-86
2021/11/02 01:22:33;;;;;;;10.67;8.23;;;10.00;1.00;;;;;;5117152;27;21211;-86
2021/11/02 01:25:00;;;;;;;9.13;7.70;;;10.00;1.00;;;;;;5115841;27;20447;-86
2021/11/02 01:27:27;;;;;;;8.50;7.60;;;10.10;1.00;;;;;;5113388;27;20535;-86
2021/11/02 01:29:55;;;;;;;9.20;8.30;;;10.10;1.00;;;;;;5114880;27;20487;-86
2021/11/02 01:32:21;;;;;;;11.47;8.27;;;10.00;1.00;;;;;;5112546;27;20407;-86
2021/11/02 01:34:48;;;;;;;11.67;8.07;;;10.00;1.00;;;;;;5115519;27;20453;-85
2021/11/02 01:37:16;;;;;;;9.10;7.80;;;10.00;1.00;;;;;;5095918;27;20447;-85
2021/11/02 01:39:43;;;;;;;11.17;8.37;;;10.00;1.00;;;;;;5115747;27;21869;-86
2021/11/02 01:42:09;;;;;;;10.20;7.67;;;9.90;1.00;;;;;;5108837;27;20473;-85
2021/11/02 01:44:36;;;;;;;10.17;8.10;;;9.90;1.00;;;;;;5112164;27;20449;-86
2021/11/02 01:47:04;;;;;;;10.75;8.80;;;9.90;1.00;;;;;;5119952;27;20437;-85
2021/11/02 01:49:34;;;;;;;8.87;8.00;;;10.00;1.00;;;;;;5132180;27;20258;-86
2021/11/02 01:52:00;;;;;;;9.30;8.33;;;10.00;1.00;;;;;;5133238;27;20427;-85
2021/11/02 01:54:29;;;;;;;9.83;7.30;;;9.90;1.00;;;;;;5108972;27;21300;-84
2021/11/02 01:56:55;;;;;;;10.27;8.77;;;9.90;1.00;;;;;;5105506;27;20433;-85
2021/11/02 01:59:25;;;;;;;10.67;8.43;;;9.90;1.00;;;;;;5109497;27;20406;-85
2021/11/02 02:02:01;;;;;;;12.13;8.10;;;9.90;1.00;;;;;;5103176;27;20469;-86
2021/11/02 02:04:37;;;;;;;11.40;8.20;;;9.90;1.00;;;;;;5105159;27;20470;-86
2021/11/02 02:07:14;;;;;;;9.97;8.40;;;9.90;1.00;;;;;;5110352;27;20538;-86
2021/11/02 02:09:48;;;;;;;9.40;8.40;;;10.00;1.00;;;;;;5103702;27;20468;-86
2021/11/02 02:12:28;;;;;;;9.17;7.60;;;10.00;1.00;;;;;;5105771;27;21434;-86
2021/11/02 02:15:02;;;;;;;9.33;7.90;;;9.90;1.00;;;;;;5109474;27;20480;-85
2021/11/02 02:17:35;;;;;;;11.20;9.10;;;9.90;1.00;;;;;;5088485;27;20450;-87
2021/11/02 02:20:06;;;;;;;9.50;8.40;;;9.90;1.00;;;;;;5104758;27;20456;-87
2021/11/02 02:22:57;;;;;;;11.03;8.30;;;9.90;1.00;;;;;;5093132;27;20457;-86
2021/11/02 02:25:40;;;;;;;8.90;7.67;;;9.80;1.00;;;;;;5115836;27;20557;-87
2021/11/02 02:28:11;;;;;;;9.43;8.35;;;9.80;1.00;;;;;;5119039;27;20517;-87
2021/11/02 02:30:41;;;;;;;12.90;9.10;;;9.80;1.00;;;;;;5114769;27;20250;-86
2021/11/02 02:33:11;;;;;;;10.47;7.90;;;9.80;1.00;;;;;;5115319;27;20739;-87
2021/11/02 02:35:39;;;;;;;10.40;8.80;;;9.80;1.00;;;;;;5096621;27;20481;-86
2021/11/02 02:38:08;;;;;;;9.87;8.47;;;9.80;1.00;;;;;;5097746;27;20509;-87
2021/11/02 02:40:36;;;;;;;14.07;8.73;;;9.80;1.00;;;;;;5119562;27;20405;-88
2021/11/02 02:43:04;;;;;;;12.60;8.30;;;9.80;1.00;;;;;;5097603;27;20485;-87
2021/11/02 02:45:34;;;;;;;11.47;8.77;;;9.80;1.00;;;;;;5120848;27;20456;-87
2021/11/02 02:48:04;;;;;;;9.73;8.20;;;9.90;1.00;;;;;;5133876;27;20642;-88
2021/11/02 02:50:31;;;;;;;10.43;8.20;;;9.90;1.00;;;;;;5132406;27;20583;-85
2021/11/02 02:53:01;;;;;;;9.77;7.77;;;9.90;1.00;;;;;;5109629;27;20887;-86
2021/11/02 02:55:31;;;;;;;9.07;8.10;;;9.90;1.00;;;;;;5114435;27;20450;-86
2021/11/02 02:57:59;;;;;;;9.23;8.00;;;9.90;1.00;;;;;;5126836;27;20420;-87
2021/11/02 03:00:26;;;;;;;10.07;8.00;;;9.90;1.00;;;;;;5114650;27;20432;-87
2021/11/02 03:02:56;;;;;;;12.27;8.20;;;9.90;1.00;;;;;;5109913;27;20553;-85
2021/11/02 03:05:25;;;;;;;8.87;8.00;;;9.80;1.00;;;;;;5111712;27;20457;-86
2021/11/02 03:07:55;;;;;;;10.98;8.30;;;9.80;1.00;;;;;;5116406;27;20508;-87
2021/11/02 03:10:22;;;;;;;9.27;8.33;;;9.80;1.00;;;;;;5113874;27;20393;-87
2021/11/02 03:12:51;;;;;;;13.93;8.13;;;9.80;1.00;;;;;;5098814;27;21375;-86
2021/11/02 03:18:19;;;;;;;10.27;8.77;;;9.70;1.00;;;;;;5114417;27;21259;-87
2021/11/02 03:48:48;;;;;;;15.40;11.60;;;9.80;1.00;;;;;;5114965;27;20548;-87
2021/11/02 03:51:31;;;;;;;10.35;9.20;;;9.80;1.00;;;;;;5091859;27;20457;-87
2021/11/02 03:57:08;;;;;;;11.20;9.43;;;9.90;1.00;;;;;;5020204;28;20453;-87
2021/11/02 04:23:09;;;;;;;12.68;10.95;;;9.70;1.00;;;;;;5118117;27;20681;-86
2021/11/02 04:25:59;;;;;;;11.35;10.10;;;9.80;1.00;;;;;;5116750;27;20276;-86
2021/11/02 04:42:48;;;;;;;16.27;13.90;;;9.80;1.00;;;;;;5115512;27;20878;-87
2021/11/02 04:46:04;;;;;;;13.10;10.60;;;9.80;1.00;;;;;;5098024;27;20450;-88
2021/11/02 05:13:56;;;;;;;14.47;11.90;;;9.70;1.00;;;;;;5133209;27;20434;-86
2021/11/02 05:47:00;;;;;;;13.40;10.63;;;9.90;1.00;;;;;;5102147;27;20469;-86
2021/11/02 05:49:38;;;;;;;17.60;13.30;;;9.90;1.00;;;;;;5119036;27;20456;-86
2021/11/02 05:58:03;;;;;;;15.17;11.83;;;10.00;1.00;;;;;;5065862;27;21048;-87
2021/11/02 06:00:33;;;;;;;16.60;13.73;;;10.10;1.00;;;;;;5114643;27;20444;-84
2021/11/02 06:03:23;;;;;;;14.63;12.90;;;10.10;1.00;;;;;;5118344;27;20471;-87
2021/11/02 06:05:59;;;;;;;17.60;13.97;;;10.10;1.00;;;;;;5121503;27;20442;-86
2021/11/02 06:08:51;;;;;;;13.63;12.07;;;10.10;1.00;;;;;;5111002;27;20456;-87
2021/11/02 06:23:18;;;;;;;19.70;11.73;;;10.10;1.00;;;;;;5142062;27;20453;-87
2021/11/02 06:28:32;;;;;;;18.83;14.60;;;10.00;1.00;;;;;;5108507;27;20801;-79
2021/11/02 06:31:04;;;;;;;15.40;13.50;;;10.00;1.00;;;;;;5105046;27;20450;-80
2021/11/02 06:33:48;;;;;;;18.80;13.37;;;10.00;1.00;;;;;;5106226;27;20446;-81
2021/11/02 06:36:33;;;;;;;17.67;13.50;;;10.00;1.00;;;;;;5099714;27;20457;-77
2021/11/02 06:39:31;;;;;;;18.77;13.83;;;10.00;1.00;;;;;;5105877;27;20570;-78
2021/11/02 06:45:14;;;;;;;17.03;14.87;;;10.00;1.00;;;;;;5106787;27;20463;-78
2021/11/02 06:48:00;;;;;;;16.20;12.30;;;10.00;1.00;;;;;;5106119;27;20465;-77
2021/11/02 06:56:30;;;;;;;17.50;14.57;;;10.10;1.00;;;;;;5106874;27;20524;-77
2021/11/02 06:59:18;;;;;;;16.43;12.83;;;10.10;1.00;;;;;;5107093;27;20450;-78
2021/11/02 07:16:11;;;;;;;19.30;15.63;;;10.20;1.00;;;;;;5101910;27;20456;-77
2021/11/02 07:18:38;;;;;;;20.27;16.40;;;10.20;1.00;;;;;;5102212;27;20485;-77
2021/11/02 07:21:10;;;;;;;21.90;16.77;;;10.20;1.00;;;;;;5089988;27;20469;-76
2021/11/02 07:23:46;;;;;;;22.40;16.90;;;10.10;1.00;;;;;;5100101;27;20524;-77
2021/11/02 08:47:15;;;;;;;19.67;15.27;;;10.60;1.00;;;;;;5108322;27;20446;-82
2021/11/02 08:49:46;;;;;;;18.70;15.57;;;10.60;1.00;;;;;;5108721;27;21643;-80
2021/11/02 08:52:14;;;;;;;19.53;14.50;;;10.60;1.00;;;;;;5110996;27;20460;-80
2021/11/02 08:54:43;;;;;;;16.77;14.53;;;10.70;1.00;;;;;;5109947;27;20599;-79
2021/11/02 08:57:10;;;;;;;18.50;15.17;;;10.70;1.00;;;;;;5118469;27;20910;-78
2021/11/02 08:59:37;;;;;;;17.50;14.60;;;10.80;1.00;;;;;;5113667;27;20470;-79
2021/11/02 09:02:08;;;;;;;20.53;15.47;;;10.70;1.00;;;;;;5112426;27;20457;-79
2021/11/02 09:04:41;;;;;;;18.77;15.30;;;10.80;1.00;;;;;;5114145;27;20571;-80
2021/11/02 09:07:13;;;;;;;18.37;15.13;;;10.80;1.00;;;;;;5112007;27;20451;-79
2021/11/02 09:09:44;;;;;;;17.57;15.20;;;10.80;1.00;;;;;;5121300;27;20453;-80
2021/11/02 09:12:11;;;;;;;20.70;16.37;;;10.90;1.00;;;;;;5110951;27;20461;-80
2021/11/02 09:14:39;;;;;;;18.80;14.77;;;11.00;1.00;;;;;;5113185;27;20440;-81
2021/11/02 09:17:08;;;;;;;19.30;15.00;;;11.00;1.00;;;;;;5114654;27;20421;-80
2021/11/02 09:19:36;;;;;;;16.83;14.90;;;11.00;1.00;;;;;;5117391;27;20452;-80
2021/11/02 09:22:04;;;;;;;16.80;15.00;;;11.00;1.00;;;;;;5134074;27;20452;-80
2021/11/02 09:24:31;;;;;;;17.47;15.40;;;11.00;1.00;;;;;;5130094;27;20449;-82
2021/11/02 09:27:01;;;;;;;19.27;14.77;;;11.10;1.00;;;;;;5114591;27;20462;-80
2021/11/02 09:29:29;;;;;;;18.73;16.60;;;11.10;1.00;;;;;;5110842;27;20503;-80
2021/11/02 09:31:57;;;;;;;18.43;15.50;;;11.10;1.00;;;;;;5117640;27;20542;-79
2021/11/02 09:34:24;;;;;;;17.97;15.13;;;11.10;1.00;;;;;;5107682;27;20441;-80
2021/11/02 09:36:57;;;;;;;19.53;15.20;;;11.10;1.00;;;;;;5106499;27;20442;-77
2021/11/02 09:39:27;;;;;;;18.40;15.27;;;11.20;1.00;;;;;;5101710;27;20450;-77
2021/11/02 09:42:13;;;;;;;17.17;14.10;;;11.30;1.00;;;;;;5102993;27;20422;-77
2021/11/02 09:45:17;;;;;;;21.40;16.03;;;11.40;1.00;;;;;;5100515;27;20572;-80
2021/11/02 09:48:33;;;;;;;17.33;15.53;;;11.30;1.00;;;;;;5107838;27;21338;-80
2021/11/02 09:51:47;;;;;;;17.60;14.73;;;11.40;1.00;;;;;;5104891;27;20453;-80
2021/11/02 09:54:48;;;;;;;16.60;14.20;;;11.50;1.00;;;;;;5107599;27;20550;-80
2021/11/02 09:57:53;;;;;;;19.37;16.07;;;11.60;1.00;;;;;;5064548;27;20480;-78
2021/11/02 10:00:40;;;;;;;20.77;16.63;;;11.70;1.00;;;;;;5110491;27;20468;-79
2021/11/02 10:03:41;;;;;;;19.90;15.70;;;11.80;1.00;;;;;;5118097;27;20508;-79
2021/11/02 10:06:31;;;;;;;20.17;15.80;;;11.80;1.00;;;;;;5114665;27;20464;-77
2021/11/02 10:09:05;;;;;;;18.23;16.03;;;11.90;1.00;;;;;;5095907;27;20420;-78
2021/11/02 10:11:38;;;;;;;17.90;15.80;;;12.00;1.00;;;;;;5109123;27;20465;-78
2021/11/02 10:14:27;;;;;;;19.20;15.73;;;12.00;1.00;;;;;;5110694;27;20543;-80
2021/11/02 10:17:21;;;;;;;18.30;15.50;;;12.00;1.00;;;;;;5111818;27;20452;-78
2021/11/02 10:20:06;;;;;;;18.70;15.67;;;12.00;1.00;;;;;;5097020;27;20481;-78
2021/11/02 10:22:53;;;;;;;20.10;16.70;;;11.80;1.00;;;;;;5132094;27;20460;-81
2021/11/02 10:25:45;;;;;;;19.23;17.20;;;11.90;1.00;;;;;;5114137;27;20460;-81
2021/11/02 10:28:50;;;;;;;21.93;19.00;;;11.90;1.00;;;;;;5099911;27;20460;-81
2021/11/02 10:31:33;;;;;;;24.10;18.83;;;12.00;1.00;;;;;;5112334;27;20660;-79
2021/11/02 10:34:02;;;;;;;22.90;19.00;;;12.10;1.00;;;;;;5108209;27;20496;-78
2021/11/02 10:36:36;;;;;;;27.37;21.73;;;12.10;1.00;;;;;;5113418;27;20471;-80
2021/11/02 10:39:17;;;;;;;25.93;19.80;;;12.10;1.00;;;;;;5108428;27;20437;-79
2021/11/02 10:41:54;;;;;;;22.90;18.80;;;12.20;1.00;;;;;;5101919;27;20541;-79
2021/11/02 10:44:28;;;;;;;30.23;21.70;;;12.20;1.00;;;;;;5108518;27;20585;-78
2021/11/02 10:47:04;;;;;;;24.70;20.17;;;12.30;1.00;;;;;;5106774;27;20456;-78
2021/11/02 10:49:49;;;;;;;23.13;20.63;;;12.30;1.00;;;;;;5106921;27;20467;-79
2021/11/02 10:52:23;;;;;;;25.27;22.10;;;12.20;1.00;;;;;;5108261;27;20525;-78
2021/11/02 10:54:58;;;;;;;30.33;21.57;;;12.30;1.00;;;;;;5123761;27;20532;-80
2021/11/02 10:57:39;;;;;;;25.33;20.17;;;12.40;1.00;;;;;;5103303;27;20460;-78
2021/11/02 11:00:07;;;;;;;32.03;22.93;;;12.50;1.00;;;;;;5108649;27;21857;-80
2021/11/02 11:02:37;;;;;;;24.30;19.80;;;12.60;1.00;;;;;;5102589;27;20450;-79
2021/11/02 11:05:06;;;;;;;28.23;20.90;;;12.80;1.00;;;;;;5106553;27;20464;-80
2021/11/02 11:07:37;;;;;;;25.07;21.30;;;13.10;1.00;;;;;;5097614;27;20526;-79
2021/11/02 11:10:05;;;;;;;22.57;20.17;;;13.30;1.00;;;;;;5098019;27;20495;-80
2021/11/02 11:12:34;;;;;;;29.53;21.30;;;13.40;1.00;;;;;;5103952;27;20919;-78
2021/11/02 11:15:03;;;;;;;31.37;24.80;;;13.40;1.00;;;;;;5105259;27;20523;-78
2021/11/02 11:17:31;;;;;;;27.40;20.77;;;13.60;1.00;;;;;;5101113;27;20460;-78
2021/11/02 11:20:09;;;;;;;22.20;19.30;;;13.50;1.00;;;;;;5117330;27;20416;-76
2021/11/02 11:22:40;;;;;;;22.37;18.50;;;13.50;1.00;;;;;;5106365;27;20456;-76
2021/11/02 11:25:11;;;;;;;20.83;18.63;;;13.40;1.00;;;;;;5097528;27;20520;-76
2021/11/02 11:27:46;;;;;;;24.60;18.80;;;13.40;1.00;;;;;;5101441;27;20457;-76
2021/11/02 11:30:13;;;;;;;21.13;18.60;;;13.30;1.00;;;;;;5101159;27;20987;-76
2021/11/02 11:32:40;;;;;;;19.80;17.43;;;13.30;1.00;;;;;;5098263;27;20492;-78
2021/11/02 11:35:10;;;;;;;21.80;18.30;;;13.40;1.00;;;;;;5096847;27;20433;-76
2021/11/02 11:37:39;;;;;;;25.83;19.87;;;13.50;1.00;;;;;;5099468;27;20464;-76
2021/11/02 11:40:08;;;;;;;21.07;18.47;;;13.60;1.00;;;;;;5097871;27;20449;-77
2021/11/02 11:42:35;;;;;;;20.07;17.20;;;13.70;1.00;;;;;;5094537;27;20448;-77
2021/11/02 11:45:08;;;;;;;23.90;18.80;;;13.90;1.00;;;;;;5094533;27;21172;-75
2021/11/02 11:47:35;;;;;;;15.87;14.33;;;14.20;1.00;;;;;;5098021;27;20457;-76
2021/11/02 11:50:28;;;;;;;20.83;15.50;;;14.40;1.00;;;;;;5103988;27;20430;-75
2021/11/02 11:52:59;;;;;;;17.20;13.27;;;14.50;1.00;;;;;;5103232;27;21101;-76
2021/11/02 11:55:28;;;;;;;14.80;11.70;;;14.30;1.00;;;;;;5102149;27;20461;-75
2021/11/02 11:58:10;;;;;;;16.40;12.50;;;14.10;1.00;;;;;;5098043;27;20467;-76
2021/11/02 12:00:39;;;;;;;17.80;13.60;;;13.80;1.00;;;;;;5100918;27;20479;-77
2021/11/02 12:03:16;;;;;;;12.20;10.40;;;13.70;1.00;;;;;;5099823;27;21496;-76
2021/11/02 12:05:45;;;;;;;12.20;10.83;;;13.60;1.00;;;;;;5102322;27;20493;-76
2021/11/02 12:08:21;;;;;;;11.53;10.33;;;13.50;1.00;;;;;;5095664;27;20591;-77
2021/11/02 12:10:52;;;;;;;14.03;11.73;;;13.50;1.00;;;;;;5099430;27;20907;-76
2021/11/02 12:13:19;;;;;;;16.20;12.53;;;13.60;1.00;;;;;;5094985;27;23156;-76
2021/11/02 12:16:09;;;;;;;13.40;12.10;;;13.60;1.00;;;;;;5095111;27;20446;-77
2021/11/02 12:18:37;;;;;;;14.17;11.53;;;13.60;1.00;;;;;;5097072;27;20450;-76
2021/11/02 12:21:07;;;;;;;14.50;12.40;;;13.60;1.00;;;;;;5100696;27;20448;-76
2021/11/02 12:23:39;;;;;;;13.33;11.00;;;13.70;1.00;;;;;;5106722;27;20979;-77
2021/11/02 12:26:06;;;;;;;18.90;13.63;;;13.70;1.00;;;;;;5100867;27;20621;-76
2021/11/02 12:28:36;;;;;;;15.60;12.47;;;13.80;1.00;;;;;;5096591;27;20456;-78
2021/11/02 12:31:04;;;;;;;12.47;11.30;;;13.90;1.00;;;;;;5095113;27;20944;-76
2021/11/02 12:33:32;;;;;;;13.37;12.00;;;13.90;1.00;;;;;;5094962;27;20452;-78
2021/11/02 12:36:03;;;;;;;17.63;13.00;;;13.80;1.00;;;;;;5094991;27;20579;-77
2021/11/02 12:38:34;;;;;;;13.27;11.93;;;13.80;1.00;;;;;;5095796;27;20446;-77
2021/11/02 12:41:01;;;;;;;16.70;11.57;;;13.90;1.00;;;;;;5097838;27;20430;-75
2021/11/02 12:43:30;;;;;;;13.77;12.33;;;14.10;1.00;;;;;;5100124;27;20980;-77
2021/11/02 12:45:59;;;;;;;13.90;12.50;;;14.40;1.00;;;;;;5096434;27;20475;-77
2021/11/02 12:48:26;;;;;;;11.30;10.20;;;14.50;1.00;;;;;;5096287;27;20460;-77
2021/11/02 12:50:54;;;;;;;12.27;11.07;;;14.70;1.00;;;;;;5097879;27;20452;-77
2021/11/02 12:53:21;;;;;;;11.30;10.20;;;14.70;1.00;;;;;;5097510;27;20475;-77
2021/11/02 12:55:50;;;;;;;12.90;11.70;;;14.90;1.00;;;;;;5097497;27;20532;-77
2021/11/02 12:58:19;;;;;;;11.60;10.60;;;15.00;1.00;;;;;;5095211;27;20457;-76
2021/11/02 13:00:50;;;;;;;15.87;11.33;;;15.10;1.00;;;;;;5102843;27;21869;-76
2021/11/02 13:03:30;;;;;;;12.63;10.60;;;15.00;1.00;;;;;;5106804;27;20434;-76
2021/11/02 13:06:00;;;;;;;13.37;12.17;;;15.00;1.00;;;;;;5109075;27;20458;-76
2021/11/02 13:08:37;;;;;;;12.77;11.47;;;14.80;1.00;;;;;;5111604;27;20445;-77
2021/11/02 13:11:10;;;;;;;16.00;12.97;;;14.80;1.00;;;;;;5106656;27;20431;-77
2021/11/02 13:14:04;;;;;;;12.77;11.43;;;14.80;1.00;;;;;;5079457;27;20680;-77
2021/11/02 13:16:51;;;;;;;14.30;11.53;;;14.80;1.00;;;;;;5107643;27;20425;-77
2021/11/02 13:19:19;;;;;;;16.47;12.03;;;14.90;1.00;;;;;;5102443;27;20467;-76
2021/11/02 13:21:48;;;;;;;13.63;11.80;;;14.90;1.00;;;;;;5103067;27;20391;-78
2021/11/02 13:24:20;;;;;;;14.90;13.30;;;14.90;1.00;;;;;;5111144;27;20450;-78
2021/11/02 13:26:50;;;;;;;12.83;11.53;;;14.90;1.00;;;;;;5100666;27;21145;-79
2021/11/02 13:29:18;;;;;;;12.73;11.00;;;14.90;1.00;;;;;;5101192;27;20559;-80
2021/11/02 13:31:46;;;;;;;16.07;13.60;;;14.70;1.00;;;;;;5101704;27;20463;-80
2021/11/02 13:34:15;;;;;;;12.97;11.70;;;14.50;1.00;;;;;;5106540;27;20472;-79
2021/11/02 13:36:42;;;;;;;13.50;12.20;;;14.40;1.00;;;;;;5108224;27;20449;-79
2021/11/02 13:39:11;;;;;;;14.80;13.10;;;14.30;1.00;;;;;;5103112;27;20458;-80
2021/11/02 13:41:40;;;;;;;15.63;12.40;;;14.10;1.00;;;;;;5084947;27;20911;-80
2021/11/02 13:44:10;;;;;;;16.27;12.13;;;14.00;1.00;;;;;;5103271;27;20442;-80
2021/11/02 13:46:39;;;;;;;11.60;10.40;;;13.90;1.00;;;;;;5103172;27;21369;-78
2021/11/02 13:49:07;;;;;;;13.70;12.40;;;13.80;1.00;;;;;;5108353;27;20963;-79
2021/11/02 13:51:34;;;;;;;14.17;11.47;;;13.70;1.00;;;;;;5106352;27;20488;-79
2021/11/02 13:54:01;;;;;;;14.43;12.30;;;13.70;1.00;;;;;;5103787;27;20434;-79
2021/11/02 13:56:30;;;;;;;14.43;13.00;;;13.70;1.00;;;;;;5101723;27;20525;-78
2021/11/02 13:58:58;;;;;;;15.13;12.03;;;13.60;1.00;;;;;;5105416;27;21044;-80
2021/11/02 14:01:29;;;;;;;13.73;12.10;;;13.70;1.00;;;;;;5100588;27;20450;-80
2021/11/02 14:04:07;;;;;;;12.17;10.93;;;13.60;1.00;;;;;;5098953;27;20446;-79
2021/11/02 14:06:37;;;;;;;11.47;10.30;;;13.60;1.00;;;;;;5097569;27;20480;-79
2021/11/02 14:09:08;;;;;;;11.77;10.57;;;13.60;1.00;;;;;;5095645;27;21661;-79
2021/11/02 14:11:37;;;;;;;18.70;12.27;;;13.60;1.00;;;;;;5107471;27;20524;-79
2021/11/02 14:14:05;;;;;;;12.43;11.23;;;13.60;1.00;;;;;;5096641;27;21203;-79
2021/11/02 14:16:38;;;;;;;16.03;12.50;;;13.60;1.00;;;;;;5107449;27;20531;-77
2021/11/02 14:19:05;;;;;;;12.17;10.73;;;13.60;1.00;;;;;;5105384;27;20464;-79
2021/11/02 14:21:50;;;;;;;11.17;10.17;;;13.70;1.00;;;;;;5123338;27;20473;-79
2021/11/02 14:24:30;;;;;;;14.67;11.33;;;13.70;1.00;;;;;;5116666;27;20689;-80
2021/11/02 14:26:56;;;;;;;13.57;12.17;;;13.70;1.00;;;;;;5111526;27;20469;-79
2021/11/02 14:29:45;;;;;;;11.37;10.17;;;13.80;1.00;;;;;;5106317;27;20458;-80
2021/11/02 14:32:51;;;;;;;11.10;8.50;;;13.80;1.00;;;;;;5107954;27;20454;-79
2021/11/02 14:35:46;;;;;;;9.63;8.70;;;13.70;1.00;;;;;;5103043;27;20815;-79
2021/11/02 14:38:13;;;;;;;9.97;8.40;;;13.80;1.00;;;;;;5103208;27;20566;-78
2021/11/02 14:40:41;;;;;;;11.63;9.60;;;13.90;1.00;;;;;;5102696;27;20457;-79
2021/11/02 14:43:35;;;;;;;9.70;7.80;;;14.00;1.00;;;;;;5102736;27;20929;-79
2021/11/02 14:46:04;;;;;;;12.43;10.63;;;13.90;1.00;;;;;;5104346;27;20495;-80
2021/11/02 14:48:48;;;;;;;10.67;8.20;;;14.00;1.00;;;;;;5101700;27;20410;-78
2021/11/02 14:51:27;;;;;;;8.60;7.70;;;14.00;1.00;;;;;;5079454;27;20464;-78
2021/11/02 14:53:56;;;;;;;8.60;7.13;;;13.90;1.00;;;;;;5103656;27;20583;-79
2021/11/02 14:56:34;;;;;;;8.70;7.27;;;13.90;1.00;;;;;;5103392;27;20494;-79
2021/11/02 14:59:03;;;;;;;8.43;7.07;;;13.70;1.00;;;;;;5078096;27;20468;-77
2021/11/02 15:02:05;;;;;;;11.77;7.83;;;13.70;1.00;;;;;;5099233;27;20464;-78
2021/11/02 15:04:34;;;;;;;7.97;6.90;;;13.60;1.00;;;;;;5104269;27;20522;-79
2021/11/02 15:07:04;;;;;;;8.50;7.70;;;13.60;1.00;;;;;;5092424;27;20447;-78
2021/11/02 15:09:32;;;;;;;9.97;7.70;;;13.50;1.00;;;;;;5101332;27;21228;-79
2021/11/02 15:11:59;;;;;;;9.03;8.00;;;13.50;1.00;;;;;;5100385;27;21004;-78
2021/11/02 15:14:28;;;;;;;9.23;8.23;;;13.50;1.00;;;;;;5098311;27;20572;-78
2021/11/02 15:16:57;;;;;;;7.10;6.40;;;13.50;1.00;;;;;;5098930;27;20413;-79
2021/11/02 15:19:26;;;;;;;7.50;6.70;;;13.30;1.00;;;;;;5101621;27;20593;-78
2021/11/02 15:21:56;;;;;;;9.17;7.20;;;13.30;1.00;;;;;;5097989;27;20463;-77
2021/11/02 15:24:25;;;;;;;22.30;18.20;;;13.20;1.00;;;;;;5116456;27;20466;-78
2021/11/02 15:26:55;;;;;;;10.03;8.67;;;13.10;1.00;;;;;;5096980;27;20554;-77
2021/11/02 15:29:23;;;;;;;10.73;7.90;;;12.90;1.00;;;;;;5102190;27;20448;-79
2021/11/02 15:32:06;;;;;;;11.63;9.30;;;12.80;1.00;;;;;;5095033;27;20565;-77
2021/11/02 15:34:36;;;;;;;12.07;10.27;;;12.70;1.00;;;;;;5091374;27;21032;-79
2021/11/02 15:37:06;;;;;;;12.97;9.20;;;12.60;1.00;;;;;;5107578;27;20432;-78
2021/11/02 15:39:33;;;;;;;11.97;10.00;;;12.60;1.00;;;;;;5098200;27;20529;-78
2021/11/02 15:42:01;;;;;;;11.40;10.20;;;12.50;1.00;;;;;;5098268;27;20591;-79
2021/11/02 15:44:29;;;;;;;11.93;9.53;;;12.40;1.00;;;;;;5099519;27;20445;-78
2021/11/02 15:46:56;;;;;;;10.13;9.10;;;12.40;1.00;;;;;;5096486;27;21149;-79
2021/11/02 15:49:24;;;;;;;12.07;8.83;;;12.30;1.00;;;;;;5095642;27;20409;-77
2021/11/02 15:51:57;;;;;;;10.80;8.63;;;12.30;1.00;;;;;;5097590;27;20464;-78
2021/11/02 15:54:26;;;;;;;12.90;9.50;;;12.20;1.00;;;;;;5099774;27;20513;-79
2021/11/02 15:56:55;;;;;;;9.83;8.83;;;12.10;1.00;;;;;;5099146;27;20440;-79
2021/11/02 15:59:26;;;;;;;11.83;9.67;;;12.10;1.00;;;;;;5110097;27;20591;-80
2021/11/02 16:01:54;;;;;;;10.23;9.20;;;12.00;1.00;;;;;;5120971;27;20447;-78
2021/11/02 16:04:23;;;;;;;13.50;9.50;;;11.90;1.00;;;;;;5116903;27;20782;-81
2021/11/02 16:07:00;;;;;;;14.90;10.20;;;11.80;1.00;;;;;;5104749;27;20455;-79
2021/11/02 16:09:49;;;;;;;12.87;10.20;;;11.80;1.00;;;;;;5119808;27;20475;-79
2021/11/02 16:12:17;;;;;;;14.00;11.17;;;11.60;1.00;;;;;;5112441;27;20483;-79
2021/11/02 16:14:50;;;;;;;10.27;9.27;;;11.60;1.00;;;;;;5101584;27;20460;-79
2021/11/02 16:17:17;;;;;;;12.33;10.27;;;11.50;1.00;;;;;;5098540;27;20416;-79
2021/11/02 16:19:44;;;;;;;10.97;9.93;;;11.30;1.00;;;;;;5088842;27;20437;-79
2021/11/02 16:22:11;;;;;;;12.67;9.83;;;11.30;1.00;;;;;;5106938;27;21651;-79
2021/11/02 16:24:40;;;;;;;11.43;10.33;;;11.20;1.00;;;;;;5110733;27;21259;-79
2021/11/02 16:27:20;;;;;;;10.33;9.30;;;11.20;1.00;;;;;;5107089;27;21300;-79
2021/11/02 16:29:48;;;;;;;11.90;10.80;;;11.10;1.00;;;;;;5109708;27;21886;-80
2021/11/02 16:32:20;;;;;;;12.73;10.80;;;11.00;1.00;;;;;;5120972;27;20464;-77
2021/11/02 16:34:47;;;;;;;12.33;11.10;;;11.00;1.00;;;;;;5106767;27;20564;-79
2021/11/02 16:37:29;;;;;;;12.67;11.37;;;10.90;1.00;;;;;;5106127;27;20460;-79
2021/11/02 16:40:26;;;;;;;13.40;12.00;;;10.90;1.00;;;;;;5110843;27;20444;-80
2021/11/02 16:42:59;;;;;;;21.03;14.30;;;10.90;1.00;;;;;;5107692;27;20461;-79
2021/11/02 16:45:32;;;;;;;18.60;13.63;;;10.80;1.00;;;;;;5109523;27;20451;-80
2021/11/02 16:48:01;;;;;;;18.60;15.10;;;10.80;1.00;;;;;;5106329;27;20460;-80
2021/11/02 16:50:30;;;;;;;22.87;16.60;;;10.80;1.00;;;;;;5107550;27;20501;-79
2021/11/02 16:53:15;;;;;;;48.17;41.33;;;10.80;1.00;;;;;;5108435;27;20589;-78
2021/11/02 16:55:45;;;;;;;20.87;17.33;;;10.80;1.00;;;;;;5112155;27;20452;-81
2021/11/02 16:58:34;;;;;;;26.60;21.27;;;10.80;1.00;;;;;;5108634;27;20531;-81
2021/11/02 17:01:23;;;;;;;17.70;15.50;;;10.80;1.00;;;;;;5108825;27;21683;-79
2021/11/02 17:03:51;;;;;;;18.40;16.30;;;10.80;1.00;;;;;;5104845;27;21338;-80
2021/11/02 17:06:20;;;;;;;17.40;15.63;;;10.70;1.00;;;;;;5131112;27;20436;-81
2021/11/02 17:09:06;;;;;;;20.67;18.57;;;10.60;1.00;;;;;;5113678;27;20464;-82
2021/11/02 17:11:58;;;;;;;20.23;17.80;;;10.60;1.00;;;;;;5114746;27;20514;-86
2021/11/02 17:14:26;;;;;;;19.33;17.33;;;10.50;1.00;;;;;;5121397;27;20439;-80
2021/11/02 17:17:00;;;;;;;19.00;17.10;;;10.40;1.00;;;;;;5109727;27;20568;-82
2021/11/02 17:19:28;;;;;;;18.20;16.30;;;10.40;1.00;;;;;;5119308;27;20461;-82
2021/11/02 17:21:57;;;;;;;19.87;17.77;;;10.40;1.00;;;;;;5113591;27;21348;-80
2021/11/02 17:24:25;;;;;;;24.70;18.10;;;10.40;1.00;;;;;;5088503;27;20891;-82
2021/11/02 17:26:53;;;;;;;24.33;20.97;;;10.40;1.00;;;;;;5107572;27;20503;-79